sensor_id;sensor_type;location;lat;lon;timestamp;pressure;altitude;pressure_sealevel;temperature;humidity
73941;BME280;62294;48.554;10.202;2023-02-28T00:01:25;96464.72;;;-3.06;100.00
73941;BME280;62294;48.554;10.202;2023-02-28T00:03:52;96476.78;;;-3.05;100.00
73941;BME280;62294;48.554;10.202;2023-02-28T00:06:20;96468.34;;;-2.97;100.00
73941;BME280;62294;48.554;10.202;2023-02-28T00:08:47;96471.44;;;-3.03;100.00
73941;BME280;62294;48.554;10.202;2023-02-28T00:11:14;96460.88;;;-2.91;100.00
73941;BME280;62294;48.554;10.202;2023-02-28T00:13:44;96467.97;;;-2.93;100.00
73941;BME280;62294;48.554;10.202;2023-02-28T00:16:15;96472.72;;;-2.98;100.00
73941;BME280;62294;48.554;10.202;2023-02-28T00:18:42;96467.06;;;-3.03;100.00
73941;BME280;62294;48.554;10.202;2023-02-28T00:21:09;96470.56;;;-3.13;100.00
73941;BME280;62294;48.554;10.202;2023-02-28T00:23:36;96475.31;;;-3.18;100.00
73941;BME280;62294;48.554;10.202;2023-02-28T00:26:03;96472.63;;;-3.28;100.00
73941;BME280;62294;48.554;10.202;2023-02-28T00:28:30;96463.44;;;-3.32;100.00
73941;BME280;62294;48.554;10.202;2023-02-28T00:30:56;96455.88;;;-3.35;100.00
73941;BME280;62294;48.554;10.202;2023-02-28T00:33:24;96469.78;;;-3.25;100.00
73941;BME280;62294;48.554;10.202;2023-02-28T00:35:50;96465.09;;;-3.31;100.00
73941;BME280;62294;48.554;10.202;2023-02-28T00:38:17;96461.44;;;-3.39;100.00
73941;BME280;62294;48.554;10.202;2023-02-28T00:40:44;96464.31;;;-3.42;100.00
73941;BME280;62294;48.554;10.202;2023-02-28T00:43:10;96467.69;;;-3.42;100.00
73941;BME280;62294;48.554;10.202;2023-02-28T00:45:37;96466.31;;;-3.46;100.00
73941;BME280;62294;48.554;10.202;2023-02-28T00:48:04;96471.75;;;-3.49;100.00
73941;BME280;62294;48.554;10.202;2023-02-28T00:50:31;96473.91;;;-3.54;100.00
73941;BME280;62294;48.554;10.202;2023-02-28T00:52:57;96467.28;;;-3.58;100.00
73941;BME280;62294;48.554;10.202;2023-02-28T00:55:24;96472.63;;;-3.60;100.00
73941;BME280;62294;48.554;10.202;2023-02-28T00:57:50;96467.88;;;-3.54;100.00
73941;BME280;62294;48.554;10.202;2023-02-28T01:00:17;96464.31;;;-3.53;100.00
73941;BME280;62294;48.554;10.202;2023-02-28T01:02:44;96469.28;;;-3.50;100.00
73941;BME280;62294;48.554;10.202;2023-02-28T01:05:10;96472.72;;;-3.50;100.00
73941;BME280;62294;48.554;10.202;2023-02-28T01:07:37;96465.16;;;-3.53;100.00
73941;BME280;62294;48.554;10.202;2023-02-28T01:10:05;96459.47;;;-3.47;100.00
73941;BME280;62294;48.554;10.202;2023-02-28T01:12:31;96474.00;;;-3.55;100.00
73941;BME280;62294;48.554;10.202;2023-02-28T01:14:58;96465.25;;;-3.43;100.00
73941;BME280;62294;48.554;10.202;2023-02-28T01:17:25;96468.53;;;-3.41;100.00
73941;BME280;62294;48.554;10.202;2023-02-28T01:19:54;96460.69;;;-3.30;100.00
73941;BME280;62294;48.554;10.202;2023-02-28T01:22:21;96461.53;;;-3.30;100.00
73941;BME280;62294;48.554;10.202;2023-02-28T01:24:48;96456.47;;;-3.31;100.00
73941;BME280;62294;48.554;10.202;2023-02-28T01:27:15;96455.25;;;-3.27;100.00
73941;BME280;62294;48.554;10.202;2023-02-28T01:29:41;96449.13;;;-3.26;100.00
73941;BME280;62294;48.554;10.202;2023-02-28T01:32:08;96452.19;;;-3.32;100.00
73941;BME280;62294;48.554;10.202;2023-02-28T01:34:35;96460.47;;;-3.27;100.00
73941;BME280;62294;48.554;10.202;2023-02-28T01:37:01;96448.75;;;-3.22;100.00
73941;BME280;62294;48.554;10.202;2023-02-28T01:39:30;96451.28;;;-3.11;100.00
73941;BME280;62294;48.554;10.202;2023-02-28T01:41:56;96451.50;;;-3.34;100.00
73941;BME280;62294;48.554;10.202;2023-02-28T01:47:30;96451.38;;;-3.33;100.00
73941;BME280;62294;48.554;10.202;2023-02-28T01:49:58;96450.44;;;-3.32;100.00
73941;BME280;62294;48.554;10.202;2023-02-28T01:52:27;96446.63;;;-3.28;100.00
73941;BME280;62294;48.554;10.202;2023-02-28T01:54:56;96445.47;;;-3.35;100.00
73941;BME280;62294;48.554;10.202;2023-02-28T01:57:27;96448.06;;;-3.35;100.00
73941;BME280;62294;48.554;10.202;2023-02-28T02:00:03;96446.25;;;-3.23;100.00
73941;BME280;62294;48.554;10.202;2023-02-28T02:02:31;96444.22;;;-3.40;100.00
73941;BME280;62294;48.554;10.202;2023-02-28T02:05:03;96446.91;;;-3.42;100.00
73941;BME280;62294;48.554;10.202;2023-02-28T02:07:36;96435.34;;;-3.38;100.00
73941;BME280;62294;48.554;10.202;2023-02-28T02:18:02;96433.72;;;-3.18;100.00
73941;BME280;62294;48.554;10.202;2023-02-28T02:21:02;96436.00;;;-3.25;100.00
73941;BME280;62294;48.554;10.202;2023-02-28T02:35:08;96426.53;;;-3.26;100.00
73941;BME280;62294;48.554;10.202;2023-02-28T02:40:35;96426.75;;;-3.18;100.00
73941;BME280;62294;48.554;10.202;2023-02-28T02:43:25;96421.47;;;-3.07;100.00
73941;BME280;62294;48.554;10.202;2023-02-28T02:46:06;96430.28;;;-2.98;100.00
73941;BME280;62294;48.554;10.202;2023-02-28T02:48:36;96418.63;;;-3.04;100.00
73941;BME280;62294;48.554;10.202;2023-02-28T02:51:10;96418.25;;;-2.99;100.00
73941;BME280;62294;48.554;10.202;2023-02-28T02:53:44;96420.09;;;-3.11;100.00
73941;BME280;62294;48.554;10.202;2023-02-28T02:56:13;96423.88;;;-3.15;100.00
73941;BME280;62294;48.554;10.202;2023-02-28T02:58:43;96418.94;;;-3.18;100.00
73941;BME280;62294;48.554;10.202;2023-02-28T03:01:16;96423.09;;;-3.06;100.00
73941;BME280;62294;48.554;10.202;2023-02-28T03:04:02;96425.97;;;-3.09;100.00
73941;BME280;62294;48.554;10.202;2023-02-28T03:06:29;96419.78;;;-3.17;100.00
73941;BME280;62294;48.554;10.202;2023-02-28T03:08:55;96437.59;;;-3.13;100.00
73941;BME280;62294;48.554;10.202;2023-02-28T03:11:22;96433.84;;;-3.20;100.00
73941;BME280;62294;48.554;10.202;2023-02-28T03:13:58;96422.78;;;-3.12;100.00
73941;BME280;62294;48.554;10.202;2023-02-28T03:19:50;96429.06;;;-3.15;100.00
73941;BME280;62294;48.554;10.202;2023-02-28T03:26:04;96418.44;;;-3.12;100.00
73941;BME280;62294;48.554;10.202;2023-02-28T03:28:21;96417.50;;;-3.11;100.00
73941;BME280;62294;48.554;10.202;2023-02-28T03:31:03;96416.53;;;-3.10;100.00
73941;BME280;62294;48.554;10.202;2023-02-28T03:33:39;96420.56;;;-3.17;100.00
73941;BME280;62294;48.554;10.202;2023-02-28T03:36:13;96415.66;;;-3.20;100.00
73941;BME280;62294;48.554;10.202;2023-02-28T03:38:51;96421.47;;;-3.07;100.00
73941;BME280;62294;48.554;10.202;2023-02-28T03:41:31;96419.69;;;-3.27;100.00
73941;BME280;62294;48.554;10.202;2023-02-28T03:44:04;96420.09;;;-3.11;100.00
73941;BME280;62294;48.554;10.202;2023-02-28T03:46:36;96420.97;;;-3.01;100.00
73941;BME280;62294;48.554;10.202;2023-02-28T03:49:13;96428.75;;;-3.01;100.00
73941;BME280;62294;48.554;10.202;2023-02-28T03:51:46;96430.91;;;-2.85;100.00
73941;BME280;62294;48.554;10.202;2023-02-28T03:54:18;96429.03;;;-2.83;100.00
73941;BME280;62294;48.554;10.202;2023-02-28T03:56:55;96432.13;;;-3.10;100.00
73941;BME280;62294;48.554;10.202;2023-02-28T04:02:19;96432.41;;;-3.13;100.00
73941;BME280;62294;48.554;10.202;2023-02-28T04:04:46;96426.81;;;-2.88;100.00
73941;BME280;62294;48.554;10.202;2023-02-28T04:07:15;96437.91;;;-2.85;100.00
73941;BME280;62294;48.554;10.202;2023-02-28T04:09:42;96437.72;;;-2.94;100.00
73941;BME280;62294;48.554;10.202;2023-02-28T04:12:09;96432.41;;;-2.92;100.00
73941;BME280;62294;48.554;10.202;2023-02-28T04:14:36;96434.25;;;-2.73;100.00
73941;BME280;62294;48.554;10.202;2023-02-28T04:17:03;96441.44;;;-2.87;100.00
73941;BME280;62294;48.554;10.202;2023-02-28T04:19:30;96435.41;;;-2.66;100.00
73941;BME280;62294;48.554;10.202;2023-02-28T04:21:56;96437.84;;;-2.74;100.00
73941;BME280;62294;48.554;10.202;2023-02-28T04:24:25;96432.88;;;-2.77;100.00
73941;BME280;62294;48.554;10.202;2023-02-28T04:26:54;96434.56;;;-2.67;100.00
73941;BME280;62294;48.554;10.202;2023-02-28T04:29:24;96437.13;;;-2.56;100.00
73941;BME280;62294;48.554;10.202;2023-02-28T04:31:51;96426.19;;;-2.50;100.00
73941;BME280;62294;48.554;10.202;2023-02-28T04:34:20;96432.59;;;-2.54;100.00
73941;BME280;62294;48.554;10.202;2023-02-28T04:36:47;96425.53;;;-2.72;100.00
73941;BME280;62294;48.554;10.202;2023-02-28T04:39:36;96434.97;;;-2.71;100.00
73941;BME280;62294;48.554;10.202;2023-02-28T04:42:03;96440.53;;;-2.55;100.00
73941;BME280;62294;48.554;10.202;2023-02-28T04:44:30;96434.47;;;-2.65;100.00
73941;BME280;62294;48.554;10.202;2023-02-28T04:46:56;96433.69;;;-2.56;100.00
73941;BME280;62294;48.554;10.202;2023-02-28T04:49:23;96437.16;;;-2.46;100.00
73941;BME280;62294;48.554;10.202;2023-02-28T04:51:50;96442.78;;;-2.41;100.00
73941;BME280;62294;48.554;10.202;2023-02-28T04:54:16;96435.50;;;-2.47;100.00
73941;BME280;62294;48.554;10.202;2023-02-28T04:56:44;96435.09;;;-2.73;100.00
73941;BME280;62294;48.554;10.202;2023-02-28T04:59:11;96428.75;;;-2.80;100.00
73941;BME280;62294;48.554;10.202;2023-02-28T05:01:37;96436.31;;;-2.98;100.00
73941;BME280;62294;48.554;10.202;2023-02-28T05:04:04;96443.66;;;-3.03;100.00
73941;BME280;62294;48.554;10.202;2023-02-28T05:06:32;96446.56;;;-2.75;100.00
73941;BME280;62294;48.554;10.202;2023-02-28T05:09:00;96436.94;;;-2.84;100.00
73941;BME280;62294;48.554;10.202;2023-02-28T05:11:31;96435.31;;;-2.85;100.00
73941;BME280;62294;48.554;10.202;2023-02-28T05:14:04;96450.91;;;-2.85;100.00
73941;BME280;62294;48.554;10.202;2023-02-28T05:16:32;96448.84;;;-2.61;100.00
73941;BME280;62294;48.554;10.202;2023-02-28T05:18:59;96455.19;;;-2.54;100.00
73941;BME280;62294;48.554;10.202;2023-02-28T05:21:31;96454.94;;;-2.51;100.00
73941;BME280;62294;48.554;10.202;2023-02-28T05:24:04;96445.81;;;-2.66;100.00
73941;BME280;62294;48.554;10.202;2023-02-28T05:26:35;96458.34;;;-2.51;100.00
73941;BME280;62294;48.554;10.202;2023-02-28T05:29:03;96457.28;;;-2.48;100.00
73941;BME280;62294;48.554;10.202;2023-02-28T05:31:29;96449.94;;;-2.64;100.00
73941;BME280;62294;48.554;10.202;2023-02-28T05:33:56;96440.34;;;-2.63;100.00
73941;BME280;62294;48.554;10.202;2023-02-28T05:36:24;96452.16;;;-2.59;100.00
73941;BME280;62294;48.554;10.202;2023-02-28T05:38:51;96443.97;;;-2.55;100.00
73941;BME280;62294;48.554;10.202;2023-02-28T05:41:18;96450.81;;;-2.54;100.00
73941;BME280;62294;48.554;10.202;2023-02-28T05:43:47;96454.38;;;-2.55;100.00
73941;BME280;62294;48.554;10.202;2023-02-28T05:46:14;96447.75;;;-2.38;100.00
73941;BME280;62294;48.554;10.202;2023-02-28T05:48:42;96450.34;;;-2.38;100.00
73941;BME280;62294;48.554;10.202;2023-02-28T05:51:09;96459.00;;;-2.58;100.00
73941;BME280;62294;48.554;10.202;2023-02-28T05:53:36;96465.59;;;-2.54;100.00
73941;BME280;62294;48.554;10.202;2023-02-28T05:56:03;96466.88;;;-2.49;100.00
73941;BME280;62294;48.554;10.202;2023-02-28T05:58:31;96470.63;;;-2.32;100.00
73941;BME280;62294;48.554;10.202;2023-02-28T06:01:19;96473.31;;;-2.43;100.00
73941;BME280;62294;48.554;10.202;2023-02-28T06:03:46;96463.16;;;-2.46;100.00
73941;BME280;62294;48.554;10.202;2023-02-28T06:06:13;96476.63;;;-2.41;100.00
73941;BME280;62294;48.554;10.202;2023-02-28T06:08:39;96467.59;;;-2.67;100.00
73941;BME280;62294;48.554;10.202;2023-02-28T06:11:06;96475.88;;;-2.53;100.00
73941;BME280;62294;48.554;10.202;2023-02-28T06:13:33;96479.13;;;-2.60;100.00
73941;BME280;62294;48.554;10.202;2023-02-28T06:16:02;96484.06;;;-2.57;100.00
73941;BME280;62294;48.554;10.202;2023-02-28T06:18:29;96479.84;;;-2.58;100.00
73941;BME280;62294;48.554;10.202;2023-02-28T06:20:56;96474.94;;;-2.72;100.00
73941;BME280;62294;48.554;10.202;2023-02-28T06:23:22;96475.31;;;-2.56;100.00
73941;BME280;62294;48.554;10.202;2023-02-28T06:25:49;96483.19;;;-2.67;100.00
73941;BME280;62294;48.554;10.202;2023-02-28T06:28:16;96482.53;;;-2.60;100.00
73941;BME280;62294;48.554;10.202;2023-02-28T06:30:42;96500.56;;;-2.47;100.00
73941;BME280;62294;48.554;10.202;2023-02-28T06:33:11;96488.81;;;-2.62;100.00
73941;BME280;62294;48.554;10.202;2023-02-28T06:35:38;96490.94;;;-2.56;100.00
73941;BME280;62294;48.554;10.202;2023-02-28T06:38:04;96494.47;;;-2.57;100.00
73941;BME280;62294;48.554;10.202;2023-02-28T06:40:31;96494.41;;;-2.46;100.00
73941;BME280;62294;48.554;10.202;2023-02-28T06:43:01;96493.75;;;-2.39;100.00
73941;BME280;62294;48.554;10.202;2023-02-28T06:45:27;96488.75;;;-2.31;100.00
73941;BME280;62294;48.554;10.202;2023-02-28T06:47:54;96502.25;;;-2.37;100.00
73941;BME280;62294;48.554;10.202;2023-02-28T06:50:21;96496.41;;;-2.29;100.00
73941;BME280;62294;48.554;10.202;2023-02-28T06:52:48;96505.44;;;-2.33;100.00
73941;BME280;62294;48.554;10.202;2023-02-28T06:55:14;96497.13;;;-2.48;100.00
73941;BME280;62294;48.554;10.202;2023-02-28T06:57:40;96502.97;;;-2.55;100.00
73941;BME280;62294;48.554;10.202;2023-02-28T07:00:08;96502.09;;;-2.45;100.00
73941;BME280;62294;48.554;10.202;2023-02-28T07:02:36;96503.19;;;-2.17;100.00
73941;BME280;62294;48.554;10.202;2023-02-28T07:05:05;96505.38;;;-2.22;100.00
73941;BME280;62294;48.554;10.202;2023-02-28T07:07:31;96518.97;;;-2.39;100.00
73941;BME280;62294;48.554;10.202;2023-02-28T07:09:58;96518.53;;;-2.44;100.00
73941;BME280;62294;48.554;10.202;2023-02-28T07:12:25;96521.06;;;-2.33;100.00
73941;BME280;62294;48.554;10.202;2023-02-28T07:14:52;96526.59;;;-2.47;100.00
73941;BME280;62294;48.554;10.202;2023-02-28T07:17:18;96520.38;;;-2.35;100.00
73941;BME280;62294;48.554;10.202;2023-02-28T07:19:44;96518.25;;;-2.21;100.00
73941;BME280;62294;48.554;10.202;2023-02-28T07:22:11;96514.56;;;-2.18;100.00
73941;BME280;62294;48.554;10.202;2023-02-28T07:24:41;96525.50;;;-2.24;100.00
73941;BME280;62294;48.554;10.202;2023-02-28T07:27:07;96522.75;;;-2.23;100.00
73941;BME280;62294;48.554;10.202;2023-02-28T07:29:34;96511.81;;;-2.17;100.00
73941;BME280;62294;48.554;10.202;2023-02-28T07:32:01;96517.06;;;-2.07;100.00
73941;BME280;62294;48.554;10.202;2023-02-28T07:34:27;96515.25;;;-2.16;100.00
73941;BME280;62294;48.554;10.202;2023-02-28T07:36:54;96519.59;;;-2.26;100.00
73941;BME280;62294;48.554;10.202;2023-02-28T07:39:21;96521.50;;;-1.98;100.00
73941;BME280;62294;48.554;10.202;2023-02-28T07:41:48;96521.94;;;-1.93;100.00
73941;BME280;62294;48.554;10.202;2023-02-28T07:44:15;96516.81;;;-2.04;100.00
73941;BME280;62294;48.554;10.202;2023-02-28T07:46:41;96524.00;;;-1.87;100.00
73941;BME280;62294;48.554;10.202;2023-02-28T07:49:08;96523.84;;;-1.55;100.00
73941;BME280;62294;48.554;10.202;2023-02-28T07:51:35;96531.22;;;-1.70;100.00
73941;BME280;62294;48.554;10.202;2023-02-28T07:54:01;96528.88;;;-1.73;100.00
73941;BME280;62294;48.554;10.202;2023-02-28T07:56:28;96525.44;;;-1.73;100.00
73941;BME280;62294;48.554;10.202;2023-02-28T07:58:55;96536.84;;;-1.65;100.00
73941;BME280;62294;48.554;10.202;2023-02-28T08:01:22;96530.78;;;-1.75;100.00
73941;BME280;62294;48.554;10.202;2023-02-28T08:03:48;96528.00;;;-1.43;100.00
73941;BME280;62294;48.554;10.202;2023-02-28T08:06:18;96530.22;;;-1.29;100.00
73941;BME280;62294;48.554;10.202;2023-02-28T08:08:45;96531.28;;;-1.41;100.00
73941;BME280;62294;48.554;10.202;2023-02-28T08:11:12;96537.47;;;-1.82;100.00
73941;BME280;62294;48.554;10.202;2023-02-28T08:13:39;96545.47;;;-1.64;100.00
73941;BME280;62294;48.554;10.202;2023-02-28T08:16:06;96539.81;;;-1.79;100.00
73941;BME280;62294;48.554;10.202;2023-02-28T08:18:53;96542.44;;;-1.79;100.00
73941;BME280;62294;48.554;10.202;2023-02-28T08:21:20;96536.00;;;-1.75;100.00
73941;BME280;62294;48.554;10.202;2023-02-28T08:23:49;96530.34;;;-1.80;100.00
73941;BME280;62294;48.554;10.202;2023-02-28T08:26:17;96527.09;;;-1.72;100.00
73941;BME280;62294;48.554;10.202;2023-02-28T08:28:44;96527.06;;;-1.32;100.00
73941;BME280;62294;48.554;10.202;2023-02-28T08:31:13;96535.03;;;-1.24;100.00
73941;BME280;62294;48.554;10.202;2023-02-28T08:33:41;96542.28;;;-1.37;100.00
73941;BME280;62294;48.554;10.202;2023-02-28T08:36:08;96527.25;;;-1.05;100.00
73941;BME280;62294;48.554;10.202;2023-02-28T08:38:36;96532.81;;;-1.38;100.00
73941;BME280;62294;48.554;10.202;2023-02-28T08:41:05;96530.22;;;-1.19;100.00
73941;BME280;62294;48.554;10.202;2023-02-28T08:43:33;96526.13;;;-1.12;100.00
73941;BME280;62294;48.554;10.202;2023-02-28T08:46:01;96525.84;;;-1.19;100.00
73941;BME280;62294;48.554;10.202;2023-02-28T08:48:29;96535.19;;;-0.97;100.00
73941;BME280;62294;48.554;10.202;2023-02-28T08:50:57;96553.03;;;-0.93;100.00
73941;BME280;62294;48.554;10.202;2023-02-28T08:53:32;96538.75;;;-1.08;100.00
73941;BME280;62294;48.554;10.202;2023-02-28T08:56:01;96530.53;;;-1.03;100.00
73941;BME280;62294;48.554;10.202;2023-02-28T08:58:28;96539.03;;;-1.01;100.00
73941;BME280;62294;48.554;10.202;2023-02-28T09:00:54;96546.69;;;-1.09;100.00
73941;BME280;62294;48.554;10.202;2023-02-28T09:03:24;96543.69;;;-0.57;100.00
73941;BME280;62294;48.554;10.202;2023-02-28T09:05:54;96539.88;;;-0.72;100.00
73941;BME280;62294;48.554;10.202;2023-02-28T09:08:21;96540.69;;;-0.91;100.00
73941;BME280;62294;48.554;10.202;2023-02-28T09:10:47;96542.59;;;-0.93;100.00
73941;BME280;62294;48.554;10.202;2023-02-28T09:13:14;96541.47;;;-0.23;100.00
73941;BME280;62294;48.554;10.202;2023-02-28T09:15:41;96537.78;;;-0.59;100.00
73941;BME280;62294;48.554;10.202;2023-02-28T09:18:07;96549.63;;;-0.55;100.00
73941;BME280;62294;48.554;10.202;2023-02-28T09:20:37;96551.63;;;-0.20;100.00
73941;BME280;62294;48.554;10.202;2023-02-28T09:23:04;96554.44;;;-0.69;100.00
73941;BME280;62294;48.554;10.202;2023-02-28T09:25:30;96542.72;;;-0.37;100.00
73941;BME280;62294;48.554;10.202;2023-02-28T09:27:56;96535.66;;;-0.08;100.00
73941;BME280;62294;48.554;10.202;2023-02-28T09:30:23;96550.81;;;0.16;100.00
73941;BME280;62294;48.554;10.202;2023-02-28T09:32:50;96542.25;;;-0.13;100.00
73941;BME280;62294;48.554;10.202;2023-02-28T09:35:18;96543.97;;;0.15;100.00
73941;BME280;62294;48.554;10.202;2023-02-28T09:37:45;96549.44;;;0.22;100.00
73941;BME280;62294;48.554;10.202;2023-02-28T09:40:12;96541.66;;;0.39;100.00
73941;BME280;62294;48.554;10.202;2023-02-28T09:42:40;96552.78;;;0.41;100.00
73941;BME280;62294;48.554;10.202;2023-02-28T09:45:24;96558.47;;;0.64;100.00
73941;BME280;62294;48.554;10.202;2023-02-28T09:47:54;96567.41;;;0.34;100.00
73941;BME280;62294;48.554;10.202;2023-02-28T09:52:54;96556.34;;;0.50;100.00
73941;BME280;62294;48.554;10.202;2023-02-28T09:55:32;96566.38;;;0.54;100.00
73941;BME280;62294;48.554;10.202;2023-02-28T09:58:20;96562.47;;;0.86;100.00
73941;BME280;62294;48.554;10.202;2023-02-28T10:00:56;96560.38;;;0.89;100.00
73941;BME280;62294;48.554;10.202;2023-02-28T10:03:32;96560.59;;;0.78;100.00
73941;BME280;62294;48.554;10.202;2023-02-28T10:06:14;96563.72;;;1.09;100.00
73941;BME280;62294;48.554;10.202;2023-02-28T10:08:56;96566.78;;;1.22;100.00
73941;BME280;62294;48.554;10.202;2023-02-28T10:11:25;96555.88;;;1.26;100.00
73941;BME280;62294;48.554;10.202;2023-02-28T10:14:06;96554.38;;;2.36;100.00
73941;BME280;62294;48.554;10.202;2023-02-28T10:16:50;96551.59;;;3.21;100.00
73941;BME280;62294;48.554;10.202;2023-02-28T10:19:30;96570.75;;;3.22;100.00
73941;BME280;62294;48.554;10.202;2023-02-28T10:22:11;96569.53;;;3.82;100.00
73941;BME280;62294;48.554;10.202;2023-02-28T10:24:50;96564.19;;;3.10;100.00
73941;BME280;62294;48.554;10.202;2023-02-28T10:27:23;96559.00;;;3.66;100.00
73941;BME280;62294;48.554;10.202;2023-02-28T10:30:01;96568.19;;;3.46;100.00
73941;BME280;62294;48.554;10.202;2023-02-28T10:32:32;96574.75;;;4.06;100.00
73941;BME280;62294;48.554;10.202;2023-02-28T10:35:24;96566.31;;;4.43;100.00
73941;BME280;62294;48.554;10.202;2023-02-28T10:37:54;96567.97;;;4.36;100.00
73941;BME280;62294;48.554;10.202;2023-02-28T10:43:03;96576.41;;;4.15;100.00
73941;BME280;62294;48.554;10.202;2023-02-28T10:45:34;96579.03;;;3.99;100.00
73941;BME280;62294;48.554;10.202;2023-02-28T10:48:04;96580.50;;;4.18;100.00
73941;BME280;62294;48.554;10.202;2023-02-28T10:50:42;96573.63;;;4.01;100.00
73941;BME280;62294;48.554;10.202;2023-02-28T10:55:36;96573.69;;;4.56;100.00
73941;BME280;62294;48.554;10.202;2023-02-28T10:58:18;96590.94;;;4.74;100.00
73941;BME280;62294;48.554;10.202;2023-02-28T11:00:46;96593.19;;;3.66;100.00
73941;BME280;62294;48.554;10.202;2023-02-28T11:03:24;96584.78;;;4.19;100.00
73941;BME280;62294;48.554;10.202;2023-02-28T11:05:51;96597.41;;;4.48;100.00
73941;BME280;62294;48.554;10.202;2023-02-28T11:08:18;96591.84;;;5.28;100.00
73941;BME280;62294;48.554;10.202;2023-02-28T11:10:54;96598.53;;;5.08;100.00
73941;BME280;62294;48.554;10.202;2023-02-28T11:13:29;96611.34;;;5.72;100.00
73941;BME280;62294;48.554;10.202;2023-02-28T11:16:00;96663.38;;;5.79;100.00
73941;BME280;62294;48.554;10.202;2023-02-28T11:18:31;96668.06;;;5.30;100.00
73941;BME280;62294;48.554;10.202;2023-02-28T11:21:01;96674.38;;;4.33;100.00
73941;BME280;62294;48.554;10.202;2023-02-28T11:23:32;96678.97;;;2.32;100.00
73941;BME280;62294;48.554;10.202;2023-02-28T11:26:04;96681.59;;;3.67;100.00
73941;BME280;62294;48.554;10.202;2023-02-28T11:28:41;96673.34;;;3.70;100.00
73941;BME280;62294;48.554;10.202;2023-02-28T11:33:52;96676.69;;;3.96;100.00
73941;BME280;62294;48.554;10.202;2023-02-28T11:36:26;96680.72;;;3.09;100.00
73941;BME280;62294;48.554;10.202;2023-02-28T11:39:01;96690.84;;;3.04;100.00
73941;BME280;62294;48.554;10.202;2023-02-28T11:41:48;96681.66;;;2.74;100.00
73941;BME280;62294;48.554;10.202;2023-02-28T11:47:44;96669.72;;;2.71;100.00
73941;BME280;62294;48.554;10.202;2023-02-28T11:53:10;96676.28;;;3.09;100.00
73941;BME280;62294;48.554;10.202;2023-02-28T11:55:49;96668.31;;;2.85;100.00
73941;BME280;62294;48.554;10.202;2023-02-28T12:04:04;96660.41;;;2.08;100.00
73941;BME280;62294;48.554;10.202;2023-02-28T12:06:50;96661.50;;;2.23;100.00
73941;BME280;62294;48.554;10.202;2023-02-28T12:12:38;96666.22;;;2.37;100.00
73941;BME280;62294;48.554;10.202;2023-02-28T12:20:33;96665.97;;;2.31;100.00
73941;BME280;62294;48.554;10.202;2023-02-28T12:26:42;96663.06;;;2.59;100.00
73941;BME280;62294;48.554;10.202;2023-02-28T12:29:14;96660.81;;;2.64;100.00
73941;BME280;62294;48.554;10.202;2023-02-28T12:31:49;96642.34;;;2.48;100.00
73941;BME280;62294;48.554;10.202;2023-02-28T12:34:28;96650.75;;;1.91;100.00
73941;BME280;62294;48.554;10.202;2023-02-28T12:37:03;96648.91;;;2.52;100.00
73941;BME280;62294;48.554;10.202;2023-02-28T12:39:39;96646.03;;;2.63;100.00
73941;BME280;62294;48.554;10.202;2023-02-28T12:42:46;96638.16;;;2.63;100.00
73941;BME280;62294;48.554;10.202;2023-02-28T12:47:50;96649.19;;;2.67;100.00
73941;BME280;62294;48.554;10.202;2023-02-28T12:50:19;96640.84;;;2.46;100.00
73941;BME280;62294;48.554;10.202;2023-02-28T12:52:50;96644.31;;;2.80;100.00
73941;BME280;62294;48.554;10.202;2023-02-28T12:55:27;96640.97;;;2.70;100.00
73941;BME280;62294;48.554;10.202;2023-02-28T12:58:36;96636.41;;;3.14;100.00
73941;BME280;62294;48.554;10.202;2023-02-28T13:03:51;96626.34;;;2.59;100.00
73941;BME280;62294;48.554;10.202;2023-02-28T13:09:05;96632.19;;;2.53;100.00
73941;BME280;62294;48.554;10.202;2023-02-28T13:11:54;96629.06;;;2.83;100.00
73941;BME280;62294;48.554;10.202;2023-02-28T13:16:56;96635.41;;;3.07;100.00
73941;BME280;62294;48.554;10.202;2023-02-28T13:19:26;96629.78;;;2.94;100.00
73941;BME280;62294;48.554;10.202;2023-02-28T13:21:54;96632.78;;;3.07;100.00
73941;BME280;62294;48.554;10.202;2023-02-28T13:29:38;96630.25;;;3.39;100.00
73941;BME280;62294;48.554;10.202;2023-02-28T13:34:47;96621.16;;;3.17;100.00
73941;BME280;62294;48.554;10.202;2023-02-28T13:39:54;96610.94;;;2.98;100.00
73941;BME280;62294;48.554;10.202;2023-02-28T13:42:35;96621.13;;;3.01;100.00
73941;BME280;62294;48.554;10.202;2023-02-28T13:55:35;96610.09;;;2.98;100.00
73941;BME280;62294;48.554;10.202;2023-02-28T14:03:37;96622.31;;;2.73;100.00
73941;BME280;62294;48.554;10.202;2023-02-28T14:06:28;96621.19;;;2.83;100.00
73941;BME280;62294;48.554;10.202;2023-02-28T14:09:05;96623.22;;;2.90;100.00
73941;BME280;62294;48.554;10.202;2023-02-28T14:11:37;96627.94;;;2.86;100.00
73941;BME280;62294;48.554;10.202;2023-02-28T14:14:05;96631.94;;;3.06;100.00
73941;BME280;62294;48.554;10.202;2023-02-28T14:16:44;96637.69;;;3.02;100.00
73941;BME280;62294;48.554;10.202;2023-02-28T14:19:22;96640.50;;;2.74;100.00
73941;BME280;62294;48.554;10.202;2023-02-28T14:33:22;96631.56;;;2.85;100.00
73941;BME280;62294;48.554;10.202;2023-02-28T14:38:27;96640.41;;;2.92;100.00
73941;BME280;62294;48.554;10.202;2023-02-28T14:40:56;96647.09;;;2.78;100.00
73941;BME280;62294;48.554;10.202;2023-02-28T14:43:26;96632.34;;;2.85;100.00
73941;BME280;62294;48.554;10.202;2023-02-28T14:46:01;96640.19;;;2.77;100.00
73941;BME280;62294;48.554;10.202;2023-02-28T14:48:28;96642.19;;;2.83;100.00
73941;BME280;62294;48.554;10.202;2023-02-28T14:50:58;96642.53;;;2.80;100.00
73941;BME280;62294;48.554;10.202;2023-02-28T14:53:30;96637.09;;;2.82;100.00
73941;BME280;62294;48.554;10.202;2023-02-28T14:56:01;96641.19;;;3.10;100.00
73941;BME280;62294;48.554;10.202;2023-02-28T14:58:31;96640.56;;;2.82;100.00
73941;BME280;62294;48.554;10.202;2023-02-28T15:01:00;96634.31;;;2.83;100.00